createdAt,value
2024-04-16T00:00:44.631Z,7.05
2024-04-16T00:03:16.862Z,6.70
2024-04-16T00:05:49.029Z,7.09
2024-04-16T00:08:22.491Z,6.46
2024-04-16T00:10:54.823Z,6.44
2024-04-16T00:13:26.863Z,6.62
2024-04-16T00:16:00.075Z,6.48
2024-04-16T00:18:32.250Z,6.62
2024-04-16T00:21:04.564Z,6.59
2024-04-16T00:23:36.818Z,6.53
2024-04-16T00:26:09.002Z,6.71
2024-04-16T00:28:41.206Z,6.74
2024-04-16T00:31:13.397Z,6.59
2024-04-16T00:33:45.618Z,6.50
2024-04-16T00:36:17.795Z,6.48
2024-04-16T00:38:49.911Z,6.67
2024-04-16T00:41:22.119Z,6.64
2024-04-16T00:43:54.347Z,6.47
2024-04-16T00:46:26.623Z,6.44
2024-04-16T00:48:59.043Z,6.28
2024-04-16T00:51:31.485Z,6.17
2024-04-16T00:54:04.135Z,6.34
2024-04-16T00:56:37.962Z,5.97
2024-04-16T00:59:10.173Z,6.15
2024-04-16T01:01:42.342Z,6.08
2024-04-16T01:04:14.568Z,6.08
2024-04-16T01:06:46.934Z,6.14
2024-04-16T01:09:19.332Z,6.13
2024-04-16T01:11:51.803Z,6.09
2024-04-16T01:14:23.744Z,6.53
2024-04-16T01:16:56.158Z,6.36
2024-04-16T01:19:28.880Z,6.64
2024-04-16T01:22:01.111Z,6.37
2024-04-16T01:24:33.810Z,6.66
2024-04-16T01:27:06.167Z,6.17
2024-04-16T01:29:40.659Z,6.31
2024-04-16T01:32:15.120Z,6.33
2024-04-16T01:34:47.355Z,6.46
2024-04-16T01:37:19.562Z,6.64
2024-04-16T01:39:51.794Z,6.88
2024-04-16T01:42:24.027Z,6.31
2024-04-16T01:44:57.650Z,6.00
2024-04-16T01:47:29.968Z,6.56
2024-04-16T01:50:02.017Z,6.24
2024-04-16T01:52:34.236Z,6.63
2024-04-16T01:55:06.530Z,6.46
2024-04-16T01:57:40.815Z,6.28
2024-04-16T02:00:13.169Z,6.01
2024-04-16T02:02:46.258Z,6.25
2024-04-16T02:05:18.543Z,6.38
2024-04-16T02:07:50.730Z,6.03
2024-04-16T02:10:22.985Z,6.05
2024-04-16T02:12:55.177Z,5.60
2024-04-16T02:15:27.339Z,6.33
2024-04-16T02:17:59.591Z,6.58
2024-04-16T02:20:33.047Z,6.34
2024-04-16T02:23:06.081Z,6.41
2024-04-16T02:25:38.309Z,6.11
2024-04-16T02:28:11.727Z,6.14
2024-04-16T02:30:44.629Z,5.56
2024-04-16T02:33:17.735Z,5.54
2024-04-16T02:35:49.962Z,5.28
2024-04-16T02:38:22.478Z,5.43
2024-04-16T02:40:54.724Z,5.78
2024-04-16T02:43:26.922Z,5.61
2024-04-16T02:45:59.304Z,5.53
2024-04-16T02:48:31.344Z,5.73
2024-04-16T02:51:04.148Z,5.60
2024-04-16T02:53:36.375Z,5.53
2024-04-16T02:56:08.795Z,5.62
2024-04-16T02:58:41.043Z,5.49
2024-04-16T03:01:13.363Z,5.46
2024-04-16T03:03:45.404Z,5.64
2024-04-16T03:06:17.588Z,5.81
2024-04-16T03:08:52.737Z,5.48
2024-04-16T03:11:24.976Z,5.73
2024-04-16T03:13:57.132Z,5.76
2024-04-16T03:16:29.390Z,5.71
2024-04-16T03:19:01.706Z,6.06
2024-04-16T03:21:33.889Z,5.43
2024-04-16T03:24:06.171Z,5.42
2024-04-16T03:26:38.370Z,5.58
2024-04-16T03:29:11.028Z,5.67
2024-04-16T03:31:43.517Z,5.32
2024-04-16T03:34:15.777Z,5.88
2024-04-16T03:36:48.199Z,5.13
2024-04-16T03:39:20.108Z,5.17
2024-04-16T03:41:52.415Z,5.24
2024-04-16T03:44:24.822Z,4.88
2024-04-16T03:46:58.100Z,5.10
2024-04-16T03:49:30.305Z,5.25
2024-04-16T03:52:02.505Z,4.88
2024-04-16T03:54:34.732Z,5.44
2024-04-16T03:57:06.917Z,5.58
2024-04-16T03:59:40.188Z,5.54
2024-04-16T04:02:13.425Z,5.53
2024-04-16T04:04:45.792Z,5.39
2024-04-16T04:07:18.473Z,5.14
2024-04-16T04:09:50.764Z,4.89
2024-04-16T04:12:22.904Z,4.81
2024-04-16T04:14:55.069Z,4.74
2024-04-16T04:17:27.296Z,5.09
2024-04-16T04:19:59.490Z,5.11
2024-04-16T04:22:31.689Z,4.80
2024-04-16T04:25:03.953Z,4.72
2024-04-16T04:27:36.142Z,4.62
2024-04-16T04:30:09.488Z,4.54
2024-04-16T04:32:41.674Z,4.55
2024-04-16T04:35:13.917Z,4.76
2024-04-16T04:37:46.170Z,4.72
2024-04-16T04:40:18.392Z,5.05
2024-04-16T04:42:51.387Z,5.13
2024-04-16T04:45:23.545Z,5.01
2024-04-16T04:47:55.883Z,4.93
2024-04-16T04:50:27.942Z,5.11
2024-04-16T04:53:01.952Z,4.63
2024-04-16T04:55:34.184Z,4.98
2024-04-16T04:58:06.612Z,4.81
2024-04-16T05:00:39.328Z,4.38
2024-04-16T05:03:11.502Z,4.73
2024-04-16T05:05:46.894Z,5.10
2024-04-16T05:08:19.635Z,4.99
2024-04-16T05:10:53.385Z,4.99
2024-04-16T05:13:25.694Z,4.83
2024-04-16T05:15:59.148Z,4.63
2024-04-16T05:18:31.632Z,4.80
2024-04-16T05:21:04.034Z,4.81
2024-04-16T05:23:37.091Z,4.86
2024-04-16T05:26:09.753Z,4.80
2024-04-16T05:28:41.958Z,4.47
2024-04-16T05:31:14.675Z,4.88
2024-04-16T05:33:46.928Z,4.66
2024-04-16T05:36:19.244Z,5.10
2024-04-16T05:38:51.448Z,5.26
2024-04-16T05:41:23.643Z,5.21
2024-04-16T05:43:55.804Z,5.38
2024-04-16T05:46:28.129Z,5.35
2024-04-16T05:49:00.587Z,5.50
2024-04-16T05:51:32.517Z,5.50
2024-04-16T05:54:07.750Z,5.71
2024-04-16T05:56:40.622Z,5.67
2024-04-16T05:59:13.073Z,5.61
2024-04-16T06:01:45.178Z,5.73
2024-04-16T06:04:17.902Z,5.72
2024-04-16T06:06:50.106Z,5.41
2024-04-16T06:09:22.303Z,5.81
2024-04-16T06:11:54.581Z,5.57
2024-04-16T06:14:26.720Z,5.83
2024-04-16T06:16:59.013Z,5.78
2024-04-16T06:19:31.353Z,5.62
2024-04-16T06:22:03.750Z,5.97
2024-04-16T06:24:37.009Z,5.75
2024-04-16T06:27:09.375Z,5.96
2024-04-16T06:29:41.502Z,5.92
2024-04-16T06:32:13.768Z,6.09
2024-04-16T06:34:45.996Z,6.39
2024-04-16T06:37:18.186Z,6.44
2024-04-16T06:39:50.408Z,6.66
2024-04-16T06:42:22.799Z,6.14
2024-04-16T06:44:54.714Z,6.33
2024-04-16T06:47:28.249Z,6.59
2024-04-16T06:50:00.581Z,6.43
2024-04-16T06:52:33.716Z,6.68
2024-04-16T06:55:06.650Z,6.67
2024-04-16T06:57:38.880Z,6.70
2024-04-16T07:00:11.791Z,6.73
2024-04-16T07:02:44.119Z,6.55
2024-04-16T07:05:16.164Z,6.96
2024-04-16T07:07:48.671Z,7.01
2024-04-16T07:10:20.979Z,6.56
2024-04-16T07:12:53.324Z,6.71
2024-04-16T07:15:25.516Z,6.94
2024-04-16T07:17:58.400Z,6.62
2024-04-16T07:20:30.797Z,6.82
2024-04-16T07:23:03.275Z,7.06
2024-04-16T07:25:35.545Z,7.13
2024-04-16T07:28:07.838Z,6.85
2024-04-16T07:30:40.026Z,7.17
2024-04-16T07:33:12.473Z,7.15
2024-04-16T07:35:48.026Z,6.57
2024-04-16T07:38:21.674Z,6.02
2024-04-16T07:40:57.773Z,5.44
2024-04-16T07:43:29.941Z,5.89
2024-04-16T07:46:02.456Z,5.82
2024-04-16T07:48:34.621Z,5.62
2024-04-16T07:51:07.536Z,5.28
2024-04-16T07:53:39.723Z,5.74
2024-04-16T07:56:12.249Z,5.99
2024-04-16T07:58:45.131Z,6.15
2024-04-16T08:01:18.240Z,6.33
2024-04-16T08:03:50.862Z,6.19
2024-04-16T08:06:23.061Z,6.39
2024-04-16T08:08:57.633Z,5.95
2024-04-16T08:11:30.260Z,6.11
2024-04-16T08:14:04.537Z,6.07
2024-04-16T08:16:37.942Z,6.11
2024-04-16T08:19:09.989Z,6.59
2024-04-16T08:21:42.351Z,6.88
2024-04-16T08:24:15.127Z,7.05
2024-04-16T08:26:47.341Z,7.14
2024-04-16T08:29:19.763Z,7.34
2024-04-16T08:31:51.809Z,7.31
2024-04-16T08:34:24.299Z,7.80
2024-04-16T08:36:56.274Z,7.47
2024-04-16T08:39:28.438Z,7.56
2024-04-16T08:42:05.303Z,7.91
2024-04-16T08:44:38.415Z,7.84
2024-04-16T08:47:11.991Z,8.25
2024-04-16T08:49:46.368Z,8.50
2024-04-16T08:52:20.925Z,8.43
2024-04-16T08:54:54.781Z,7.79
2024-04-16T08:57:29.747Z,8.28
2024-04-16T09:00:02.900Z,8.38
2024-04-16T09:02:36.589Z,8.47
2024-04-16T09:05:08.882Z,8.16
2024-04-16T09:07:44.086Z,8.28
2024-04-16T09:10:23.743Z,8.11
2024-04-16T09:12:56.181Z,8.44
2024-04-16T09:15:28.366Z,8.36
2024-04-16T09:18:00.738Z,8.41
2024-04-16T09:20:33.029Z,8.45
2024-04-16T09:23:06.993Z,8.55
2024-04-16T09:25:44.237Z,7.80
2024-04-16T09:28:20.055Z,8.01
2024-04-16T09:30:58.921Z,8.82
2024-04-16T09:33:38.191Z,9.08
2024-04-16T09:36:15.483Z,8.98
2024-04-16T09:38:49.064Z,8.40
2024-04-16T09:41:21.827Z,8.80
2024-04-16T09:43:54.567Z,9.28
2024-04-16T09:46:28.457Z,9.04
2024-04-16T09:49:01.021Z,8.68
2024-04-16T09:51:33.625Z,8.73
2024-04-16T09:54:07.637Z,8.63
2024-04-16T09:56:40.295Z,8.60
2024-04-16T09:59:14.133Z,8.60
2024-04-16T10:01:46.809Z,8.92
2024-04-16T10:04:19.416Z,9.18
2024-04-16T10:06:51.751Z,9.65
2024-04-16T10:09:24.110Z,9.51
2024-04-16T10:11:57.133Z,9.52
2024-04-16T10:14:30.793Z,9.76
2024-04-16T10:17:03.059Z,9.96
2024-04-16T10:19:35.283Z,10.17
2024-04-16T10:22:16.046Z,9.85
2024-04-16T10:24:55.403Z,10.70
2024-04-16T10:27:27.569Z,10.65
2024-04-16T10:30:12.240Z,10.48
2024-04-16T10:32:49.115Z,10.80
2024-04-16T10:35:22.420Z,11.45
2024-04-16T10:37:54.559Z,10.29
2024-04-16T10:40:32.180Z,10.12
2024-04-16T10:43:09.541Z,9.99
2024-04-16T10:45:46.201Z,9.65
2024-04-16T10:48:22.677Z,10.07
2024-04-16T10:50:54.902Z,10.12
2024-04-16T10:53:27.150Z,10.01
2024-04-16T10:55:59.418Z,10.34
2024-04-16T10:58:35.167Z,9.66
2024-04-16T11:01:08.024Z,9.90
2024-04-16T11:03:41.835Z,10.04
2024-04-16T11:06:14.082Z,10.45
2024-04-16T11:08:46.257Z,10.37
2024-04-16T11:11:18.673Z,10.37
2024-04-16T11:13:50.840Z,10.70
2024-04-16T11:16:23.664Z,10.89
2024-04-16T11:18:58.403Z,10.20
2024-04-16T11:21:35.830Z,10.55
2024-04-16T11:24:09.239Z,10.58
2024-04-16T11:26:42.178Z,10.86
2024-04-16T11:29:19.449Z,10.76
2024-04-16T11:31:51.767Z,11.10
2024-04-16T11:34:25.545Z,11.18
2024-04-16T11:36:57.908Z,11.04
2024-04-16T11:39:30.803Z,11.27
2024-04-16T11:42:03.010Z,10.84
2024-04-16T11:44:35.971Z,11.34
2024-04-16T11:47:11.807Z,10.39
2024-04-16T11:49:44.056Z,10.99
2024-04-16T11:52:17.304Z,10.97
2024-04-16T11:54:49.455Z,10.75
2024-04-16T11:57:21.661Z,10.82
2024-04-16T11:59:57.425Z,10.54
2024-04-16T12:02:30.542Z,10.56
2024-04-16T12:05:02.827Z,10.95
2024-04-16T12:07:34.958Z,11.18
2024-04-16T12:10:07.637Z,11.21
2024-04-16T12:12:39.840Z,11.46
2024-04-16T12:15:11.982Z,11.88
2024-04-16T12:17:44.548Z,11.46
2024-04-16T12:20:16.873Z,11.64
2024-04-16T12:22:48.994Z,11.87
2024-04-16T12:25:21.235Z,12.10
2024-04-16T12:27:54.765Z,11.27
2024-04-16T12:30:26.913Z,11.71
2024-04-16T12:33:10.594Z,11.51
2024-04-16T12:35:47.611Z,11.68
2024-04-16T12:38:19.576Z,11.92
2024-04-16T12:40:52.039Z,12.44
2024-04-16T12:43:24.288Z,12.38
2024-04-16T12:46:00.990Z,12.12
2024-04-16T12:48:33.375Z,11.72
2024-04-16T12:51:05.706Z,11.43
2024-04-16T12:53:38.157Z,11.55
2024-04-16T12:56:13.129Z,11.99
2024-04-16T12:58:45.457Z,12.26
2024-04-16T13:01:17.616Z,12.71
2024-04-16T13:03:49.920Z,12.76
2024-04-16T13:06:21.839Z,13.08
2024-04-16T13:08:54.314Z,12.36
2024-04-16T13:11:26.656Z,11.83
2024-04-16T13:13:59.849Z,11.95
2024-04-16T13:16:36.058Z,12.34
2024-04-16T13:19:09.121Z,12.05
2024-04-16T13:21:41.301Z,12.78
2024-04-16T13:24:16.614Z,12.54
2024-04-16T13:26:48.774Z,12.86
2024-04-16T13:29:24.304Z,12.67
2024-04-16T13:31:57.091Z,12.81
2024-04-16T13:34:29.353Z,12.60
2024-04-16T13:37:01.555Z,13.04
2024-04-16T13:39:33.854Z,12.95
2024-04-16T13:42:06.929Z,12.77
2024-04-16T13:44:39.265Z,12.46
2024-04-16T13:47:11.212Z,13.01
2024-04-16T13:49:43.427Z,12.58
2024-04-16T13:52:15.618Z,12.82
2024-04-16T13:54:47.818Z,12.95
2024-04-16T13:57:19.970Z,12.72
2024-04-16T13:59:53.335Z,13.31
2024-04-16T14:02:25.658Z,12.67
2024-04-16T14:04:58.088Z,13.15
2024-04-16T14:07:30.397Z,13.19
2024-04-16T14:10:02.650Z,13.58
2024-04-16T14:12:34.666Z,13.52
2024-04-16T14:15:08.786Z,14.06
2024-04-16T14:17:42.720Z,14.04
2024-04-16T14:20:15.104Z,13.26
2024-04-16T14:22:47.039Z,14.28
2024-04-16T14:25:19.311Z,15.29
2024-04-16T14:27:51.227Z,15.65
2024-04-16T14:30:23.389Z,15.06
2024-04-16T14:32:55.421Z,18.07
2024-04-16T14:35:27.674Z,19.41
2024-04-16T14:37:59.610Z,20.60
2024-04-16T14:40:31.909Z,19.60
2024-04-16T14:43:04.106Z,18.23
2024-04-16T14:45:36.303Z,18.71
2024-04-16T14:48:08.842Z,18.51
2024-04-16T14:50:45.191Z,20.74
2024-04-16T14:53:19.648Z,17.87
2024-04-16T14:55:52.421Z,17.66
2024-04-16T14:58:24.704Z,15.22
2024-04-16T15:00:57.220Z,16.79
2024-04-16T15:03:31.292Z,16.24
2024-04-16T15:06:03.547Z,16.48
2024-04-16T15:08:35.699Z,19.60
2024-04-16T15:11:07.723Z,21.09
2024-04-16T15:13:41.508Z,23.53
2024-04-16T15:16:13.676Z,21.29
2024-04-16T15:18:45.822Z,21.26
2024-04-16T15:21:18.008Z,18.82
2024-04-16T15:23:50.193Z,25.56
2024-04-16T15:26:23.176Z,22.88
2024-04-16T15:28:55.368Z,27.63
2024-04-16T15:31:27.649Z,25.19
2024-04-16T15:33:59.815Z,26.86
2024-04-16T15:36:31.969Z,20.64
2024-04-16T15:39:04.261Z,18.90
2024-04-16T15:41:36.530Z,20.13
2024-04-16T15:44:08.697Z,21.34
2024-04-16T15:46:40.960Z,25.03
2024-04-16T15:49:13.200Z,22.09
2024-04-16T15:51:45.379Z,27.07
2024-04-16T15:54:17.576Z,19.43
2024-04-16T15:56:49.788Z,22.27
2024-04-16T15:59:21.998Z,23.26
2024-04-16T16:01:54.262Z,20.21
2024-04-16T16:04:26.537Z,21.11
2024-04-16T16:06:58.720Z,15.99
2024-04-16T16:09:31.597Z,15.29
2024-04-16T16:12:03.955Z,14.31
2024-04-16T16:14:36.101Z,13.72
2024-04-16T16:17:08.439Z,13.43
2024-04-16T16:19:40.607Z,13.00
2024-04-16T16:22:20.490Z,12.52
2024-04-16T16:24:52.737Z,12.17
2024-04-16T16:27:24.670Z,12.08
2024-04-16T16:29:56.797Z,11.79
2024-04-16T16:32:29.187Z,11.98
2024-04-16T16:35:06.148Z,11.93
2024-04-16T16:37:38.632Z,11.46
2024-04-16T16:40:11.489Z,11.15
2024-04-16T16:42:43.718Z,11.03
2024-04-16T16:45:15.987Z,11.02
2024-04-16T16:47:48.091Z,11.05
2024-04-16T16:50:20.270Z,11.17
2024-04-16T16:52:52.651Z,10.96
2024-04-16T16:55:24.600Z,10.90
2024-04-16T16:57:58.957Z,10.95
2024-04-16T17:00:31.138Z,10.87
2024-04-16T17:03:03.537Z,10.73
2024-04-16T17:05:36.830Z,11.02
2024-04-16T17:08:09.026Z,10.87
2024-04-16T17:10:41.256Z,10.72
2024-04-16T17:13:13.648Z,10.69
2024-04-16T17:15:45.974Z,10.63
2024-04-16T17:18:18.057Z,10.74
2024-04-16T17:20:50.278Z,10.63
2024-04-16T17:23:22.909Z,10.76
2024-04-16T17:25:58.069Z,10.48
2024-04-16T17:28:30.382Z,10.39
2024-04-16T17:31:04.273Z,10.13
2024-04-16T17:33:36.548Z,10.39
2024-04-16T17:36:08.969Z,10.50
2024-04-16T17:38:41.478Z,10.39
2024-04-16T17:41:13.662Z,10.36
2024-04-16T17:43:46.015Z,10.39
2024-04-16T17:46:18.551Z,10.17
2024-04-16T17:48:50.777Z,9.97
2024-04-16T17:51:25.217Z,10.25
2024-04-16T17:53:57.478Z,10.35
2024-04-16T17:56:29.635Z,10.36
2024-04-16T17:59:02.006Z,10.35
2024-04-16T18:01:35.113Z,10.16
2024-04-16T18:04:10.422Z,10.08
2024-04-16T18:06:44.494Z,9.87
2024-04-16T18:09:16.806Z,10.00
2024-04-16T18:11:48.821Z,9.91
2024-04-16T18:14:21.063Z,10.01
2024-04-16T18:16:53.313Z,9.95
2024-04-16T18:19:25.562Z,10.09
2024-04-16T18:21:57.703Z,10.12
2024-04-16T18:24:29.930Z,10.08
2024-04-16T18:27:02.129Z,9.98
2024-04-16T18:29:34.265Z,9.93
2024-04-16T18:32:06.632Z,9.73
2024-04-16T18:34:39.614Z,9.94
2024-04-16T18:37:12.014Z,9.71
2024-04-16T18:39:44.078Z,9.80
2024-04-16T18:42:17.487Z,10.01
2024-04-16T18:44:49.968Z,9.93
2024-04-16T18:47:23.177Z,9.90
2024-04-16T18:49:56.321Z,9.90
2024-04-16T18:52:29.193Z,9.80
2024-04-16T18:55:02.963Z,9.85
2024-04-16T18:57:35.226Z,9.53
2024-04-16T19:00:07.979Z,9.84
2024-04-16T19:02:41.950Z,9.68
2024-04-16T19:05:16.931Z,9.67
2024-04-16T19:07:49.126Z,9.63
2024-04-16T19:10:21.948Z,9.42
2024-04-16T19:12:55.982Z,9.16
2024-04-16T19:15:30.348Z,9.15
2024-04-16T19:18:02.538Z,9.19
2024-04-16T19:20:36.200Z,9.11
2024-04-16T19:23:08.507Z,8.93
2024-04-16T19:25:40.781Z,8.87
2024-04-16T19:28:12.944Z,8.85
2024-04-16T19:30:45.306Z,8.75
2024-04-16T19:33:17.362Z,9.13
2024-04-16T19:35:49.702Z,9.09
2024-04-16T19:38:23.256Z,8.95
2024-04-16T19:40:55.459Z,9.09
2024-04-16T19:43:27.743Z,8.96
2024-04-16T19:46:00.114Z,8.80
2024-04-16T19:48:32.384Z,8.80
2024-04-16T19:51:04.654Z,8.81
2024-04-16T19:53:37.006Z,9.13
2024-04-16T19:56:09.300Z,8.68
2024-04-16T19:58:41.264Z,8.66
2024-04-16T20:01:13.471Z,8.68
2024-04-16T20:03:47.338Z,8.63
2024-04-16T20:06:20.682Z,8.63
2024-04-16T20:08:57.301Z,8.62
2024-04-16T20:11:29.581Z,8.66
2024-04-16T20:14:01.888Z,8.50
2024-04-16T20:16:34.132Z,8.60
2024-04-16T20:19:07.742Z,8.40
2024-04-16T20:21:40.186Z,8.34
2024-04-16T20:24:12.195Z,8.51
2024-04-16T20:26:44.436Z,8.53
2024-04-16T20:29:17.603Z,8.22
2024-04-16T20:31:49.965Z,8.33
2024-04-16T20:34:23.439Z,8.44
2024-04-16T20:36:56.679Z,8.49
2024-04-16T20:39:28.862Z,8.63
2024-04-16T20:42:01.016Z,8.58
2024-04-16T20:44:33.155Z,8.54
2024-04-16T20:47:05.523Z,8.43
2024-04-16T20:49:37.499Z,8.45
2024-04-16T20:52:09.738Z,8.16
2024-04-16T20:54:41.846Z,8.45
2024-04-16T20:57:14.100Z,8.12
2024-04-16T20:59:46.777Z,8.24
2024-04-16T21:02:18.949Z,8.19
2024-04-16T21:04:51.152Z,8.22
2024-04-16T21:07:23.450Z,8.17
2024-04-16T21:09:55.991Z,7.80
2024-04-16T21:12:28.171Z,8.16
2024-04-16T21:15:00.329Z,7.88
2024-04-16T21:17:32.586Z,7.84
2024-04-16T21:20:05.123Z,8.01
2024-04-16T21:22:37.188Z,8.00
2024-04-16T21:25:09.450Z,7.86
2024-04-16T21:27:41.768Z,7.99
2024-04-16T21:30:13.814Z,7.93
2024-04-16T21:32:46.068Z,7.78
2024-04-16T21:35:18.407Z,7.62
2024-04-16T21:37:50.658Z,7.78
2024-04-16T21:40:22.836Z,7.93
2024-04-16T21:42:55.019Z,7.99
2024-04-16T21:45:27.165Z,7.67
2024-04-16T21:47:59.602Z,7.61
2024-04-16T21:50:33.946Z,7.70
2024-04-16T21:53:07.194Z,7.65
2024-04-16T21:55:39.708Z,7.44
2024-04-16T21:58:11.918Z,7.51
2024-04-16T22:00:44.086Z,7.46
2024-04-16T22:03:16.384Z,7.61
2024-04-16T22:05:48.401Z,7.43
2024-04-16T22:08:20.887Z,7.33
2024-04-16T22:11:03.481Z,7.35
2024-04-16T22:13:35.495Z,7.57
2024-04-16T22:16:08.026Z,7.21
2024-04-16T22:18:40.346Z,7.22
2024-04-16T22:21:12.394Z,7.41
2024-04-16T22:23:44.595Z,7.45
2024-04-16T22:26:16.805Z,7.43
2024-04-16T22:28:49.102Z,7.54
2024-04-16T22:31:21.137Z,7.57
2024-04-16T22:33:53.327Z,7.40
2024-04-16T22:36:25.587Z,7.24
2024-04-16T22:38:58.039Z,7.29
2024-04-16T22:41:30.265Z,7.15
2024-04-16T22:44:02.542Z,7.31
2024-04-16T22:46:35.929Z,7.50
2024-04-16T22:49:08.188Z,7.30
2024-04-16T22:51:40.354Z,7.38
2024-04-16T22:54:12.517Z,7.63
2024-04-16T22:56:46.520Z,7.74
2024-04-16T22:59:19.975Z,7.46
2024-04-16T23:01:53.175Z,7.62
2024-04-16T23:04:25.484Z,7.65
2024-04-16T23:06:57.510Z,7.78
2024-04-16T23:09:29.653Z,7.47
2024-04-16T23:12:01.823Z,7.58
2024-04-16T23:14:34.006Z,7.89
2024-04-16T23:17:06.674Z,8.05
2024-04-16T23:19:38.854Z,7.72
2024-04-16T23:22:12.216Z,7.82
2024-04-16T23:24:47.613Z,8.09
2024-04-16T23:27:19.765Z,7.92
2024-04-16T23:29:51.916Z,8.26
2024-04-16T23:32:24.208Z,7.84
2024-04-16T23:34:57.043Z,8.17
2024-04-16T23:37:29.373Z,7.98
2024-04-16T23:40:01.623Z,7.61
2024-04-16T23:42:33.871Z,7.98
2024-04-16T23:45:06.411Z,8.30
2024-04-16T23:47:38.605Z,7.53
2024-04-16T23:50:10.875Z,7.75
2024-04-16T23:52:43.294Z,7.96
2024-04-16T23:55:15.563Z,7.57
2024-04-16T23:57:48.766Z,7.64
